sensor_id;sensor_type;location;lat;lon;timestamp;pressure;altitude;pressure_sealevel;temperature;humidity
21826;BME280;11075;47.944;11.776;2023-11-21T00:00:08;94300.91;;;-4.76;73.59
21826;BME280;11075;47.944;11.776;2023-11-21T00:02:39;94302.66;;;-4.55;71.07
21826;BME280;11075;47.944;11.776;2023-11-21T00:05:08;94290.16;;;-4.38;70.84
21826;BME280;11075;47.944;11.776;2023-11-21T00:07:37;94298.84;;;-4.69;71.81
21826;BME280;11075;47.944;11.776;2023-11-21T00:10:04;94301.69;;;-4.76;73.53
21826;BME280;11075;47.944;11.776;2023-11-21T00:12:32;94304.94;;;-5.44;79.76
21826;BME280;11075;47.944;11.776;2023-11-21T00:15:00;94303.38;;;-4.91;74.66
21826;BME280;11075;47.944;11.776;2023-11-21T00:17:28;94301.38;;;-4.15;69.37
21826;BME280;11075;47.944;11.776;2023-11-21T00:19:55;94294.16;;;-5.21;75.09
21826;BME280;11075;47.944;11.776;2023-11-21T00:22:22;94297.94;;;-5.12;76.16
21826;BME280;11075;47.944;11.776;2023-11-21T00:24:49;94295.00;;;-4.88;75.57
21826;BME280;11075;47.944;11.776;2023-11-21T00:27:15;94291.13;;;-4.49;72.73
21826;BME280;11075;47.944;11.776;2023-11-21T00:29:42;94292.75;;;-4.06;69.26
21826;BME280;11075;47.944;11.776;2023-11-21T00:32:09;94289.81;;;-4.09;69.16
21826;BME280;11075;47.944;11.776;2023-11-21T00:34:36;94287.63;;;-4.22;69.67
21826;BME280;11075;47.944;11.776;2023-11-21T00:37:03;94284.09;;;-3.96;68.39
21826;BME280;11075;47.944;11.776;2023-11-21T00:39:30;94286.28;;;-4.30;69.77
21826;BME280;11075;47.944;11.776;2023-11-21T00:41:58;94287.69;;;-4.12;69.92
21826;BME280;11075;47.944;11.776;2023-11-21T00:44:25;94283.19;;;-3.75;67.62
21826;BME280;11075;47.944;11.776;2023-11-21T00:46:52;94282.63;;;-4.24;69.64
21826;BME280;11075;47.944;11.776;2023-11-21T00:49:19;94285.94;;;-4.39;70.86
21826;BME280;11075;47.944;11.776;2023-11-21T00:51:48;94274.66;;;-3.92;68.64
21826;BME280;11075;47.944;11.776;2023-11-21T00:54:16;94262.25;;;-3.97;68.65
21826;BME280;11075;47.944;11.776;2023-11-21T00:56:43;94268.25;;;-4.06;69.41
21826;BME280;11075;47.944;11.776;2023-11-21T00:59:10;94275.00;;;-4.25;69.93
21826;BME280;11075;47.944;11.776;2023-11-21T01:01:37;94265.44;;;-3.94;67.97
21826;BME280;11075;47.944;11.776;2023-11-21T01:04:05;94262.78;;;-4.00;68.91
21826;BME280;11075;47.944;11.776;2023-11-21T01:06:33;94265.72;;;-3.86;68.17
21826;BME280;11075;47.944;11.776;2023-11-21T01:09:00;94270.88;;;-4.06;69.26
21826;BME280;11075;47.944;11.776;2023-11-21T01:11:27;94264.56;;;-4.10;69.08
21826;BME280;11075;47.944;11.776;2023-11-21T01:13:53;94274.00;;;-3.67;67.03
21826;BME280;11075;47.944;11.776;2023-11-21T01:16:20;94267.78;;;-3.46;65.77
21826;BME280;11075;47.944;11.776;2023-11-21T01:18:47;94256.47;;;-3.36;65.35
21826;BME280;11075;47.944;11.776;2023-11-21T01:21:14;94265.06;;;-4.13;69.35
21826;BME280;11075;47.944;11.776;2023-11-21T01:23:41;94260.28;;;-4.21;70.35
21826;BME280;11075;47.944;11.776;2023-11-21T01:26:09;94264.69;;;-4.69;74.42
21826;BME280;11075;47.944;11.776;2023-11-21T01:28:36;94263.69;;;-4.21;71.43
21826;BME280;11075;47.944;11.776;2023-11-21T01:31:03;94261.44;;;-4.02;69.70
21826;BME280;11075;47.944;11.776;2023-11-21T01:33:30;94270.50;;;-3.83;68.00
21826;BME280;11075;47.944;11.776;2023-11-21T01:35:57;94269.44;;;-4.66;72.24
21826;BME280;11075;47.944;11.776;2023-11-21T01:38:24;94271.75;;;-4.38;71.85
21826;BME280;11075;47.944;11.776;2023-11-21T01:40:51;94267.84;;;-4.67;74.56
21826;BME280;11075;47.944;11.776;2023-11-21T01:43:18;94269.06;;;-4.80;75.38
21826;BME280;11075;47.944;11.776;2023-11-21T01:45:45;94261.09;;;-4.58;73.99
21826;BME280;11075;47.944;11.776;2023-11-21T01:48:13;94264.00;;;-4.86;76.39
21826;BME280;11075;47.944;11.776;2023-11-21T01:50:41;94253.16;;;-4.63;75.22
21826;BME280;11075;47.944;11.776;2023-11-21T01:53:08;94252.91;;;-4.94;76.06
21826;BME280;11075;47.944;11.776;2023-11-21T01:55:35;94244.81;;;-4.55;74.08
21826;BME280;11075;47.944;11.776;2023-11-21T01:58:02;94251.22;;;-4.41;70.94
21826;BME280;11075;47.944;11.776;2023-11-21T02:00:30;94258.25;;;-4.51;72.54
21826;BME280;11075;47.944;11.776;2023-11-21T02:02:58;94250.88;;;-4.49;71.64
21826;BME280;11075;47.944;11.776;2023-11-21T02:05:26;94249.66;;;-4.74;73.80
21826;BME280;11075;47.944;11.776;2023-11-21T02:07:53;94249.84;;;-4.06;69.56
21826;BME280;11075;47.944;11.776;2023-11-21T02:10:20;94247.88;;;-4.68;73.60
21826;BME280;11075;47.944;11.776;2023-11-21T02:12:51;94251.78;;;-4.71;73.18
21826;BME280;11075;47.944;11.776;2023-11-21T02:15:19;94252.53;;;-3.96;67.74
21826;BME280;11075;47.944;11.776;2023-11-21T02:17:50;94256.47;;;-3.93;67.10
21826;BME280;11075;47.944;11.776;2023-11-21T02:20:20;94253.41;;;-3.80;66.40
21826;BME280;11075;47.944;11.776;2023-11-21T02:22:50;94253.47;;;-3.65;65.05
21826;BME280;11075;47.944;11.776;2023-11-21T02:25:29;94255.81;;;-3.74;65.46
21826;BME280;11075;47.944;11.776;2023-11-21T02:27:58;94242.00;;;-3.96;67.03
21826;BME280;11075;47.944;11.776;2023-11-21T02:30:25;94252.25;;;-4.00;67.74
21826;BME280;11075;47.944;11.776;2023-11-21T02:32:55;94253.34;;;-4.38;70.52
21826;BME280;11075;47.944;11.776;2023-11-21T02:35:24;94252.47;;;-4.48;71.97
21826;BME280;11075;47.944;11.776;2023-11-21T02:37:54;94246.19;;;-4.42;73.74
21826;BME280;11075;47.944;11.776;2023-11-21T02:40:21;94242.75;;;-4.01;70.56
21826;BME280;11075;47.944;11.776;2023-11-21T02:42:51;94241.31;;;-4.23;70.91
21826;BME280;11075;47.944;11.776;2023-11-21T02:45:19;94245.53;;;-3.75;68.51
21826;BME280;11075;47.944;11.776;2023-11-21T02:47:48;94244.13;;;-3.88;68.98
21826;BME280;11075;47.944;11.776;2023-11-21T02:50:20;94239.34;;;-4.01;70.27
21826;BME280;11075;47.944;11.776;2023-11-21T02:52:47;94239.47;;;-4.28;72.44
21826;BME280;11075;47.944;11.776;2023-11-21T02:55:14;94236.16;;;-4.87;75.81
21826;BME280;11075;47.944;11.776;2023-11-21T02:57:41;94237.47;;;-4.85;76.83
21826;BME280;11075;47.944;11.776;2023-11-21T03:00:08;94237.44;;;-4.53;74.93
21826;BME280;11075;47.944;11.776;2023-11-21T03:02:41;94240.00;;;-3.74;69.78
21826;BME280;11075;47.944;11.776;2023-11-21T03:05:08;94243.28;;;-3.99;70.90
21826;BME280;11075;47.944;11.776;2023-11-21T03:07:38;94246.00;;;-3.83;70.32
21826;BME280;11075;47.944;11.776;2023-11-21T03:10:07;94243.47;;;-4.57;76.58
21826;BME280;11075;47.944;11.776;2023-11-21T03:12:37;94244.22;;;-4.25;74.95
21826;BME280;11075;47.944;11.776;2023-11-21T03:15:08;94252.34;;;-4.26;75.69
21826;BME280;11075;47.944;11.776;2023-11-21T03:17:37;94244.28;;;-4.10;75.31
21826;BME280;11075;47.944;11.776;2023-11-21T03:20:05;94248.84;;;-3.95;75.77
21826;BME280;11075;47.944;11.776;2023-11-21T03:22:32;94251.16;;;-3.51;70.89
21826;BME280;11075;47.944;11.776;2023-11-21T03:24:59;94251.66;;;-3.59;72.54
21826;BME280;11075;47.944;11.776;2023-11-21T03:27:26;94250.72;;;-3.90;73.94
21826;BME280;11075;47.944;11.776;2023-11-21T03:29:53;94250.78;;;-3.80;73.73
21826;BME280;11075;47.944;11.776;2023-11-21T03:32:21;94246.09;;;-3.68;73.60
21826;BME280;11075;47.944;11.776;2023-11-21T03:34:56;94247.63;;;-3.77;74.72
21826;BME280;11075;47.944;11.776;2023-11-21T03:37:24;94253.03;;;-3.99;75.94
21826;BME280;11075;47.944;11.776;2023-11-21T03:39:51;94249.22;;;-4.23;77.57
21826;BME280;11075;47.944;11.776;2023-11-21T03:42:18;94252.53;;;-3.96;76.55
21826;BME280;11075;47.944;11.776;2023-11-21T03:44:45;94253.06;;;-3.94;75.98
21826;BME280;11075;47.944;11.776;2023-11-21T03:47:13;94250.44;;;-4.36;78.35
21826;BME280;11075;47.944;11.776;2023-11-21T03:49:40;94251.00;;;-4.34;80.28
21826;BME280;11075;47.944;11.776;2023-11-21T03:52:07;94247.78;;;-5.10;89.03
21826;BME280;11075;47.944;11.776;2023-11-21T03:54:34;94251.00;;;-5.03;88.50
21826;BME280;11075;47.944;11.776;2023-11-21T03:57:01;94247.03;;;-4.74;86.17
21826;BME280;11075;47.944;11.776;2023-11-21T03:59:28;94248.59;;;-4.41;83.95
21826;BME280;11075;47.944;11.776;2023-11-21T04:01:56;94249.41;;;-4.72;86.26
21826;BME280;11075;47.944;11.776;2023-11-21T04:04:23;94255.22;;;-4.70;85.38
21826;BME280;11075;47.944;11.776;2023-11-21T04:06:50;94244.91;;;-4.40;82.35
21826;BME280;11075;47.944;11.776;2023-11-21T04:09:18;94247.69;;;-4.56;83.91
21826;BME280;11075;47.944;11.776;2023-11-21T04:11:45;94240.38;;;-4.49;84.01
21826;BME280;11075;47.944;11.776;2023-11-21T04:14:13;94245.13;;;-4.04;81.58
21826;BME280;11075;47.944;11.776;2023-11-21T04:16:40;94241.31;;;-4.23;82.34
21826;BME280;11075;47.944;11.776;2023-11-21T04:19:08;94245.22;;;-4.31;82.49
21826;BME280;11075;47.944;11.776;2023-11-21T04:21:37;94243.28;;;-4.46;84.04
21826;BME280;11075;47.944;11.776;2023-11-21T04:24:05;94230.91;;;-4.03;79.74
21826;BME280;11075;47.944;11.776;2023-11-21T04:26:32;94238.25;;;-4.05;80.97
21826;BME280;11075;47.944;11.776;2023-11-21T04:28:59;94237.44;;;-4.11;81.11
21826;BME280;11075;47.944;11.776;2023-11-21T04:31:26;94236.47;;;-3.94;80.96
21826;BME280;11075;47.944;11.776;2023-11-21T04:33:53;94228.31;;;-3.93;79.91
21826;BME280;11075;47.944;11.776;2023-11-21T04:36:20;94222.91;;;-4.23;82.22
21826;BME280;11075;47.944;11.776;2023-11-21T04:38:46;94222.56;;;-4.37;83.31
21826;BME280;11075;47.944;11.776;2023-11-21T04:41:13;94226.88;;;-4.21;82.95
21826;BME280;11075;47.944;11.776;2023-11-21T04:43:40;94228.34;;;-3.88;78.71
21826;BME280;11075;47.944;11.776;2023-11-21T04:46:09;94232.25;;;-4.43;83.26
21826;BME280;11075;47.944;11.776;2023-11-21T04:48:36;94228.19;;;-4.18;81.14
21826;BME280;11075;47.944;11.776;2023-11-21T04:51:03;94230.72;;;-4.76;86.80
21826;BME280;11075;47.944;11.776;2023-11-21T04:53:30;94242.00;;;-4.43;83.07
21826;BME280;11075;47.944;11.776;2023-11-21T04:55:57;94236.25;;;-3.88;79.87
21826;BME280;11075;47.944;11.776;2023-11-21T04:58:25;94243.56;;;-4.42;82.49
21826;BME280;11075;47.944;11.776;2023-11-21T05:00:52;94242.94;;;-4.59;86.24
21826;BME280;11075;47.944;11.776;2023-11-21T05:03:19;94249.31;;;-4.08;82.02
21826;BME280;11075;47.944;11.776;2023-11-21T05:05:46;94246.47;;;-5.08;88.65
21826;BME280;11075;47.944;11.776;2023-11-21T05:08:13;94254.16;;;-4.32;84.59
21826;BME280;11075;47.944;11.776;2023-11-21T05:10:39;94242.97;;;-4.12;83.17
21826;BME280;11075;47.944;11.776;2023-11-21T05:13:07;94240.06;;;-4.11;82.77
21826;BME280;11075;47.944;11.776;2023-11-21T05:15:37;94240.53;;;-4.24;83.36
21826;BME280;11075;47.944;11.776;2023-11-21T05:18:05;94248.66;;;-4.31;82.54
21826;BME280;11075;47.944;11.776;2023-11-21T05:20:34;94249.88;;;-3.96;81.45
21826;BME280;11075;47.944;11.776;2023-11-21T05:23:01;94259.50;;;-3.75;79.58
21826;BME280;11075;47.944;11.776;2023-11-21T05:25:28;94246.47;;;-3.97;81.16
21826;BME280;11075;47.944;11.776;2023-11-21T05:27:55;94257.78;;;-4.43;85.22
21826;BME280;11075;47.944;11.776;2023-11-21T05:30:22;94255.53;;;-4.94;90.06
21826;BME280;11075;47.944;11.776;2023-11-21T05:32:49;94258.41;;;-4.26;83.96
21826;BME280;11075;47.944;11.776;2023-11-21T05:35:16;94255.09;;;-4.06;83.34
21826;BME280;11075;47.944;11.776;2023-11-21T05:37:45;94268.59;;;-5.04;91.61
21826;BME280;11075;47.944;11.776;2023-11-21T05:40:13;94260.44;;;-4.38;87.30
21826;BME280;11075;47.944;11.776;2023-11-21T05:42:40;94262.00;;;-4.74;89.95
21826;BME280;11075;47.944;11.776;2023-11-21T05:45:07;94260.09;;;-4.84;92.34
21826;BME280;11075;47.944;11.776;2023-11-21T05:47:43;94262.78;;;-4.42;88.85
21826;BME280;11075;47.944;11.776;2023-11-21T05:50:15;94269.59;;;-4.46;87.09
21826;BME280;11075;47.944;11.776;2023-11-21T05:52:46;94265.88;;;-4.08;85.40
21826;BME280;11075;47.944;11.776;2023-11-21T05:55:14;94260.38;;;-3.54;80.40
21826;BME280;11075;47.944;11.776;2023-11-21T05:57:42;94267.81;;;-3.93;85.11
21826;BME280;11075;47.944;11.776;2023-11-21T06:00:12;94262.78;;;-3.94;84.24
21826;BME280;11075;47.944;11.776;2023-11-21T06:02:49;94267.13;;;-4.20;85.74
21826;BME280;11075;47.944;11.776;2023-11-21T06:05:19;94264.91;;;-4.39;87.47
21826;BME280;11075;47.944;11.776;2023-11-21T06:07:46;94265.91;;;-4.45;86.52
21826;BME280;11075;47.944;11.776;2023-11-21T06:10:13;94272.38;;;-4.20;84.57
21826;BME280;11075;47.944;11.776;2023-11-21T06:12:41;94272.91;;;-4.23;85.88
21826;BME280;11075;47.944;11.776;2023-11-21T06:15:10;94282.88;;;-4.95;90.74
21826;BME280;11075;47.944;11.776;2023-11-21T06:17:41;94286.94;;;-4.08;87.15
21826;BME280;11075;47.944;11.776;2023-11-21T06:20:10;94277.78;;;-4.00;84.37
21826;BME280;11075;47.944;11.776;2023-11-21T06:22:38;94284.75;;;-4.21;86.53
21826;BME280;11075;47.944;11.776;2023-11-21T06:25:06;94276.00;;;-4.69;89.50
21826;BME280;11075;47.944;11.776;2023-11-21T06:27:39;94288.25;;;-4.47;88.55
21826;BME280;11075;47.944;11.776;2023-11-21T06:30:07;94291.13;;;-3.65;82.09
21826;BME280;11075;47.944;11.776;2023-11-21T06:32:36;94297.53;;;-3.50;80.29
21826;BME280;11075;47.944;11.776;2023-11-21T06:35:04;94288.66;;;-3.24;78.58
21826;BME280;11075;47.944;11.776;2023-11-21T06:37:32;94293.63;;;-3.90;83.04
21826;BME280;11075;47.944;11.776;2023-11-21T06:40:00;94305.47;;;-3.35;79.93
21826;BME280;11075;47.944;11.776;2023-11-21T06:42:27;94304.78;;;-3.00;77.22
21826;BME280;11075;47.944;11.776;2023-11-21T06:44:55;94308.66;;;-3.28;79.03
21826;BME280;11075;47.944;11.776;2023-11-21T06:47:25;94311.38;;;-3.03;77.14
21826;BME280;11075;47.944;11.776;2023-11-21T06:49:53;94309.59;;;-3.59;82.11
21826;BME280;11075;47.944;11.776;2023-11-21T06:52:20;94317.72;;;-3.71;84.76
21826;BME280;11075;47.944;11.776;2023-11-21T06:54:47;94320.72;;;-3.42;79.90
21826;BME280;11075;47.944;11.776;2023-11-21T06:57:16;94322.41;;;-3.11;79.59
21826;BME280;11075;47.944;11.776;2023-11-21T06:59:44;94328.41;;;-3.36;79.41
21826;BME280;11075;47.944;11.776;2023-11-21T07:02:11;94333.00;;;-4.05;85.43
21826;BME280;11075;47.944;11.776;2023-11-21T07:04:38;94331.59;;;-3.28;80.07
21826;BME280;11075;47.944;11.776;2023-11-21T07:07:06;94333.75;;;-3.10;79.84
21826;BME280;11075;47.944;11.776;2023-11-21T07:09:34;94332.81;;;-3.51;84.04
21826;BME280;11075;47.944;11.776;2023-11-21T07:12:00;94331.03;;;-3.83;84.06
21826;BME280;11075;47.944;11.776;2023-11-21T07:14:30;94319.00;;;-3.11;79.35
21826;BME280;11075;47.944;11.776;2023-11-21T07:16:57;94329.13;;;-3.50;81.31
21826;BME280;11075;47.944;11.776;2023-11-21T07:19:24;94329.75;;;-3.23;79.65
21826;BME280;11075;47.944;11.776;2023-11-21T07:21:51;94323.03;;;-2.58;74.87
21826;BME280;11075;47.944;11.776;2023-11-21T07:24:18;94320.13;;;-2.61;75.73
21826;BME280;11075;47.944;11.776;2023-11-21T07:26:45;94316.63;;;-3.08;79.16
21826;BME280;11075;47.944;11.776;2023-11-21T07:29:12;94331.75;;;-2.47;74.93
21826;BME280;11075;47.944;11.776;2023-11-21T07:31:40;94330.13;;;-2.84;78.14
21826;BME280;11075;47.944;11.776;2023-11-21T07:34:08;94330.91;;;-2.88;77.43
21826;BME280;11075;47.944;11.776;2023-11-21T07:36:35;94322.75;;;-2.82;78.04
21826;BME280;11075;47.944;11.776;2023-11-21T07:39:02;94335.63;;;-3.06;81.04
21826;BME280;11075;47.944;11.776;2023-11-21T07:41:29;94336.25;;;-2.53;77.31
21826;BME280;11075;47.944;11.776;2023-11-21T07:43:57;94331.53;;;-2.15;73.39
21826;BME280;11075;47.944;11.776;2023-11-21T07:46:26;94335.47;;;-2.28;75.27
21826;BME280;11075;47.944;11.776;2023-11-21T07:48:53;94342.56;;;-2.54;77.02
21826;BME280;11075;47.944;11.776;2023-11-21T07:51:22;94334.59;;;-2.94;78.93
21826;BME280;11075;47.944;11.776;2023-11-21T07:53:49;94333.06;;;-2.60;75.68
21826;BME280;11075;47.944;11.776;2023-11-21T07:56:16;94326.72;;;-2.74;77.49
21826;BME280;11075;47.944;11.776;2023-11-21T07:58:44;94315.94;;;-2.07;73.48
21826;BME280;11075;47.944;11.776;2023-11-21T08:01:12;94316.66;;;-1.65;70.75
21826;BME280;11075;47.944;11.776;2023-11-21T08:03:39;94315.47;;;-1.29;68.51
21826;BME280;11075;47.944;11.776;2023-11-21T08:06:06;94332.94;;;-1.33;69.84
21826;BME280;11075;47.944;11.776;2023-11-21T08:08:33;94334.09;;;-1.75;71.75
21826;BME280;11075;47.944;11.776;2023-11-21T08:11:00;94329.63;;;-1.79;71.88
21826;BME280;11075;47.944;11.776;2023-11-21T08:13:29;94324.66;;;-2.01;74.53
21826;BME280;11075;47.944;11.776;2023-11-21T08:15:58;94327.16;;;-1.45;71.11
21826;BME280;11075;47.944;11.776;2023-11-21T08:18:29;94338.38;;;-2.09;73.21
21826;BME280;11075;47.944;11.776;2023-11-21T08:20:57;94332.84;;;-2.13;72.65
21826;BME280;11075;47.944;11.776;2023-11-21T08:23:24;94338.13;;;-2.13;74.23
21826;BME280;11075;47.944;11.776;2023-11-21T08:25:55;94326.34;;;-0.81;70.48
21826;BME280;11075;47.944;11.776;2023-11-21T08:28:22;94323.97;;;-0.38;68.42
21826;BME280;11075;47.944;11.776;2023-11-21T08:30:52;94333.59;;;-1.77;69.35
21826;BME280;11075;47.944;11.776;2023-11-21T08:33:19;94328.09;;;-0.61;69.54
21826;BME280;11075;47.944;11.776;2023-11-21T08:35:46;94326.97;;;-0.99;66.43
21826;BME280;11075;47.944;11.776;2023-11-21T08:38:13;94315.84;;;4.27;49.95
21826;BME280;11075;47.944;11.776;2023-11-21T08:40:39;94310.38;;;4.32;49.05
21826;BME280;11075;47.944;11.776;2023-11-21T08:43:06;94315.97;;;1.58;58.47
21826;BME280;11075;47.944;11.776;2023-11-21T08:45:34;94305.75;;;2.98;55.83
21826;BME280;11075;47.944;11.776;2023-11-21T08:48:01;94317.19;;;-0.21;63.08
21826;BME280;11075;47.944;11.776;2023-11-21T08:50:29;94318.81;;;-1.83;69.23
21826;BME280;11075;47.944;11.776;2023-11-21T08:52:56;94323.34;;;-1.19;68.99
21826;BME280;11075;47.944;11.776;2023-11-21T08:55:23;94327.91;;;-1.34;68.18
21826;BME280;11075;47.944;11.776;2023-11-21T08:57:49;94333.03;;;-1.68;68.94
21826;BME280;11075;47.944;11.776;2023-11-21T09:00:17;94340.22;;;-1.89;72.73
21826;BME280;11075;47.944;11.776;2023-11-21T09:02:45;94344.47;;;-1.14;70.54
21826;BME280;11075;47.944;11.776;2023-11-21T09:05:13;94346.81;;;-2.43;74.73
21826;BME280;11075;47.944;11.776;2023-11-21T09:07:41;94351.31;;;-2.02;76.56
21826;BME280;11075;47.944;11.776;2023-11-21T09:10:08;94356.53;;;-2.58;75.27
21826;BME280;11075;47.944;11.776;2023-11-21T09:12:37;94360.44;;;-2.86;74.98
21826;BME280;11075;47.944;11.776;2023-11-21T09:15:05;94358.69;;;-1.99;72.89
21826;BME280;11075;47.944;11.776;2023-11-21T09:17:33;94358.63;;;-1.59;70.67
21826;BME280;11075;47.944;11.776;2023-11-21T09:20:02;94355.66;;;-1.37;68.72
21826;BME280;11075;47.944;11.776;2023-11-21T09:22:32;94375.59;;;-2.21;72.41
21826;BME280;11075;47.944;11.776;2023-11-21T09:24:59;94375.84;;;-2.27;75.27
21826;BME280;11075;47.944;11.776;2023-11-21T09:27:26;94375.34;;;-1.94;73.67
21826;BME280;11075;47.944;11.776;2023-11-21T09:29:52;94369.50;;;-2.47;75.08
21826;BME280;11075;47.944;11.776;2023-11-21T09:32:20;94384.06;;;-2.19;73.43
21826;BME280;11075;47.944;11.776;2023-11-21T09:34:48;94376.88;;;-1.57;69.07
21826;BME280;11075;47.944;11.776;2023-11-21T09:37:16;94385.34;;;-2.37;73.46
21826;BME280;11075;47.944;11.776;2023-11-21T09:39:43;94389.06;;;-1.97;71.47
21826;BME280;11075;47.944;11.776;2023-11-21T09:42:12;94399.09;;;-2.14;69.30
21826;BME280;11075;47.944;11.776;2023-11-21T09:44:58;94388.28;;;-2.13;71.43
21826;BME280;11075;47.944;11.776;2023-11-21T09:47:28;94386.38;;;-2.48;72.65
21826;BME280;11075;47.944;11.776;2023-11-21T09:49:56;94389.06;;;-2.17;73.30
21826;BME280;11075;47.944;11.776;2023-11-21T09:52:27;94384.19;;;-2.81;72.75
21826;BME280;11075;47.944;11.776;2023-11-21T09:54:55;94386.66;;;-2.24;75.04
21826;BME280;11075;47.944;11.776;2023-11-21T09:57:25;94376.53;;;-1.35;68.30
21826;BME280;11075;47.944;11.776;2023-11-21T09:59:54;94372.00;;;-1.20;67.78
21826;BME280;11075;47.944;11.776;2023-11-21T10:02:27;94369.84;;;-1.13;69.30
21826;BME280;11075;47.944;11.776;2023-11-21T10:05:00;94369.78;;;-1.97;72.28
21826;BME280;11075;47.944;11.776;2023-11-21T10:07:28;94370.84;;;-2.09;70.86
21826;BME280;11075;47.944;11.776;2023-11-21T10:09:58;94379.28;;;-1.96;71.99
21826;BME280;11075;47.944;11.776;2023-11-21T10:12:26;94379.28;;;-1.96;70.91
21826;BME280;11075;47.944;11.776;2023-11-21T10:14:56;94378.50;;;-1.97;71.55
21826;BME280;11075;47.944;11.776;2023-11-21T10:17:25;94374.25;;;-2.39;74.71
21826;BME280;11075;47.944;11.776;2023-11-21T10:19:57;94379.53;;;-1.67;69.57
21826;BME280;11075;47.944;11.776;2023-11-21T10:22:25;94384.84;;;-1.83;68.58
21826;BME280;11075;47.944;11.776;2023-11-21T10:24:53;94381.91;;;-1.76;67.78
21826;BME280;11075;47.944;11.776;2023-11-21T10:27:20;94372.94;;;-1.70;67.25
21826;BME280;11075;47.944;11.776;2023-11-21T10:29:47;94375.09;;;-2.08;72.03
21826;BME280;11075;47.944;11.776;2023-11-21T10:32:13;94367.34;;;-1.53;67.92
21826;BME280;11075;47.944;11.776;2023-11-21T10:34:40;94372.63;;;-1.58;67.68
21826;BME280;11075;47.944;11.776;2023-11-21T10:37:14;94369.72;;;-1.57;68.42
21826;BME280;11075;47.944;11.776;2023-11-21T10:39:43;94361.97;;;-1.28;69.91
21826;BME280;11075;47.944;11.776;2023-11-21T10:42:12;94382.19;;;-1.73;68.13
21826;BME280;11075;47.944;11.776;2023-11-21T10:44:41;94386.91;;;-2.46;71.92
21826;BME280;11075;47.944;11.776;2023-11-21T10:47:10;94379.25;;;-1.66;70.25
21826;BME280;11075;47.944;11.776;2023-11-21T10:49:39;94380.09;;;-1.86;72.14
21826;BME280;11075;47.944;11.776;2023-11-21T10:52:07;94385.09;;;-1.94;72.05
21826;BME280;11075;47.944;11.776;2023-11-21T10:54:33;94376.88;;;-1.67;69.96
21826;BME280;11075;47.944;11.776;2023-11-21T10:57:03;94377.41;;;-0.86;65.98
21826;BME280;11075;47.944;11.776;2023-11-21T10:59:31;94381.94;;;-1.96;69.22
21826;BME280;11075;47.944;11.776;2023-11-21T11:02:01;94387.38;;;-2.69;73.09
21826;BME280;11075;47.944;11.776;2023-11-21T11:04:31;94387.69;;;-1.54;68.63
21826;BME280;11075;47.944;11.776;2023-11-21T11:07:02;94390.31;;;-2.60;73.18
21826;BME280;11075;47.944;11.776;2023-11-21T11:09:32;94386.41;;;-1.87;69.32
21826;BME280;11075;47.944;11.776;2023-11-21T11:12:02;94395.41;;;-2.08;72.04
21826;BME280;11075;47.944;11.776;2023-11-21T11:14:32;94386.41;;;-1.82;68.71
21826;BME280;11075;47.944;11.776;2023-11-21T11:17:00;94379.31;;;-2.01;70.43
21826;BME280;11075;47.944;11.776;2023-11-21T11:19:29;94382.19;;;-1.88;69.84
21826;BME280;11075;47.944;11.776;2023-11-21T11:24:49;94388.25;;;-2.28;71.66
21826;BME280;11075;47.944;11.776;2023-11-21T11:32:59;94375.31;;;-1.68;71.32
21826;BME280;11075;47.944;11.776;2023-11-21T11:35:36;94381.47;;;-1.09;66.08
21826;BME280;11075;47.944;11.776;2023-11-21T11:38:05;94385.88;;;-2.24;72.09
21826;BME280;11075;47.944;11.776;2023-11-21T11:40:44;94381.69;;;-1.95;69.70
21826;BME280;11075;47.944;11.776;2023-11-21T11:43:12;94377.41;;;-1.65;69.53
21826;BME280;11075;47.944;11.776;2023-11-21T11:45:39;94371.38;;;-1.86;71.16
21826;BME280;11075;47.944;11.776;2023-11-21T11:48:11;94369.34;;;-1.20;66.74
21826;BME280;11075;47.944;11.776;2023-11-21T11:53:38;94364.66;;;-1.33;70.04
21826;BME280;11075;47.944;11.776;2023-11-21T11:56:28;94362.88;;;-0.88;66.52
21826;BME280;11075;47.944;11.776;2023-11-21T11:58:59;94360.28;;;-0.98;64.78
21826;BME280;11075;47.944;11.776;2023-11-21T12:01:27;94357.59;;;-0.88;65.16
21826;BME280;11075;47.944;11.776;2023-11-21T12:06:47;94359.50;;;0.47;60.23
21826;BME280;11075;47.944;11.776;2023-11-21T12:09:21;94363.41;;;-0.91;64.59
21826;BME280;11075;47.944;11.776;2023-11-21T12:11:48;94356.75;;;-0.34;63.02
21826;BME280;11075;47.944;11.776;2023-11-21T12:14:16;94351.78;;;-0.07;61.88
21826;BME280;11075;47.944;11.776;2023-11-21T12:16:43;94362.09;;;-1.74;67.46
21826;BME280;11075;47.944;11.776;2023-11-21T12:19:11;94358.47;;;-1.08;65.91
21826;BME280;11075;47.944;11.776;2023-11-21T12:21:40;94358.34;;;-0.78;65.48
21826;BME280;11075;47.944;11.776;2023-11-21T12:24:11;94360.72;;;-0.76;64.46
21826;BME280;11075;47.944;11.776;2023-11-21T12:26:41;94362.63;;;-0.43;62.98
21826;BME280;11075;47.944;11.776;2023-11-21T12:29:09;94357.13;;;0.17;60.47
21826;BME280;11075;47.944;11.776;2023-11-21T12:31:37;94352.03;;;-0.43;61.69
21826;BME280;11075;47.944;11.776;2023-11-21T12:34:04;94359.19;;;-0.43;63.31
21826;BME280;11075;47.944;11.776;2023-11-21T12:36:34;94360.41;;;-1.34;64.58
21826;BME280;11075;47.944;11.776;2023-11-21T12:39:02;94355.22;;;-0.90;61.93
21826;BME280;11075;47.944;11.776;2023-11-21T12:41:29;94364.41;;;-0.72;63.10
21826;BME280;11075;47.944;11.776;2023-11-21T12:43:57;94356.13;;;-0.60;65.40
21826;BME280;11075;47.944;11.776;2023-11-21T12:46:24;94369.19;;;-0.84;61.53
21826;BME280;11075;47.944;11.776;2023-11-21T12:48:54;94368.22;;;-0.10;62.45
21826;BME280;11075;47.944;11.776;2023-11-21T12:51:23;94357.72;;;0.38;60.54
21826;BME280;11075;47.944;11.776;2023-11-21T12:53:49;94358.53;;;0.38;61.52
21826;BME280;11075;47.944;11.776;2023-11-21T12:56:17;94352.91;;;-0.18;62.96
21826;BME280;11075;47.944;11.776;2023-11-21T12:58:45;94355.72;;;-0.38;61.99
21826;BME280;11075;47.944;11.776;2023-11-21T13:01:14;94353.81;;;-1.31;67.38
21826;BME280;11075;47.944;11.776;2023-11-21T13:03:50;94349.53;;;-0.63;64.08
21826;BME280;11075;47.944;11.776;2023-11-21T13:06:18;94355.41;;;-0.32;62.71
21826;BME280;11075;47.944;11.776;2023-11-21T13:08:46;94352.03;;;-0.92;62.87